Sansumifuku — JD2579 — position and weather

sailwx.info

Track history (hours):
 
Tides and Currents Weather Stations Pressure Air Temp Water Temp Dewpoint Dewpoint Depression Visibility Wind Speed Wind Dir Waves Ship Positions

Sansumifuku

Last reported at 2014-Dec-18 19:22 UTC. Time now 2014-Dec-22 04:57 UTC.
Position N 34°36' E 134°53'.

Length 75 m; draft 4.3 m.

Type: Cargo ship. MMSI: 431000426.

Date/timePositionNaut miles runAvg speedWind from/ knotsBaromVisibWave heightAir tempDewpointWater temp
2014-Dec-18 19:22N 34°36' E 134°53'1012.6
2014-Dec-18 18:33N 34°35' E 135°05'1212.4
2014-Dec-18 17:33N 34°33' E 135°20'  
2014-Dec-15 07:32N 34°31' E 135°24'0 0.0
2014-Dec-15 03:13N 34°31' E 135°24'5 3.1
2014-Dec-15 01:32N 34°36' E 135°22'6 3.1
2014-Dec-14 23:33N 34°40' E 135°27'2 2.3
2014-Dec-14 22:32N 34°39' E 135°25'2 2.5
2014-Dec-14 21:33N 34°37' E 135°22'0 0.0
2014-Dec-14 20:27N 34°37' E 135°22'0 0.0
2014-Dec-14 19:33N 34°37' E 135°22'0 0.0
2014-Dec-14 18:33N 34°37' E 135°22'0 0.0
2014-Dec-14 17:33N 34°37' E 135°22'0 0.0
2014-Dec-14 16:33N 34°37' E 135°22'0 0.0
2014-Dec-14 15:21N 34°37' E 135°22'0 0.0
2014-Dec-14 14:33N 34°37' E 135°22'0 0.0
2014-Dec-14 13:15N 34°37' E 135°22'0 0.0
2014-Dec-14 12:33N 34°37' E 135°22'0 0.0
2014-Dec-14 11:27N 34°37' E 135°22'0 0.0
2014-Dec-14 10:15N 34°37' E 135°22'0 0.0
2014-Dec-14 09:27N 34°37' E 135°22'0 0.0
2014-Dec-14 08:27N 34°37' E 135°22'0 0.0
2014-Dec-14 07:33N 34°37' E 135°22'0 0.0
2014-Dec-14 06:33N 34°37' E 135°22'0 0.0
2014-Dec-14 05:33N 34°37' E 135°22'0 0.0
2014-Dec-14 04:27N 34°37' E 135°22'0 0.0
2014-Dec-14 03:27N 34°37' E 135°22'0 0.0
2014-Dec-14 02:33N 34°37' E 135°22'0 0.0
2014-Dec-14 01:33N 34°37' E 135°22'0 0.0
2014-Dec-14 00:33N 34°37' E 135°22'0 0.0
2014-Dec-13 23:09N 34°37' E 135°22'0 0.0
2014-Dec-13 22:15N 34°37' E 135°22'0 0.0
2014-Dec-13 21:33N 34°37' E 135°22'0 0.0
2014-Dec-13 20:33N 34°37' E 135°22'0 0.0
2014-Dec-13 19:33N 34°37' E 135°22'0 0.0
2014-Dec-13 18:33N 34°37' E 135°22'0 0.0
2014-Dec-13 17:33N 34°37' E 135°22'0 0.0
2014-Dec-13 16:33N 34°37' E 135°22'0 0.0
2014-Dec-13 15:33N 34°37' E 135°22'0 0.0
2014-Dec-13 14:33N 34°37' E 135°22'0 0.0
2014-Dec-13 13:33N 34°37' E 135°22'0 0.0
2014-Dec-13 12:33N 34°37' E 135°22'0 0.0
2014-Dec-13 11:33N 34°37' E 135°22'0 0.0
2014-Dec-13 10:33N 34°37' E 135°22'0 0.1
2014-Dec-13 09:33N 34°37' E 135°22'1110.9
2014-Dec-13 08:33N 34°35' E 135°09'12 0.3
2014-Dec-11 09:10N 34°36' E 134°55'6 9.7
2014-Dec-11 08:33N 34°37' E 135°02'1111.0
2014-Dec-11 07:32N 34°36' E 135°15'8 6.5
2014-Dec-11 06:16N 34°35' E 135°25'0 0.0
2014-Dec-11 05:28N 34°35' E 135°25'2 1.3
2014-Dec-11 04:13N 34°35' E 135°27'0 0.0
2014-Dec-10 22:17N 34°35' E 135°27'1 1.7
2014-Dec-10 21:33N 34°35' E 135°26'9 9.2
2014-Dec-10 20:33N 34°31' E 135°16'1210.3
2014-Dec-10 19:24N 34°22' E 135°07'7 8.6
2014-Dec-10 18:33N 34°15' E 135°05'2 1.9
2014-Dec-10 17:33N 34°15' E 135°07'0 0.0
2014-Dec-10 16:30N 34°15' E 135°07'0 0.0
2014-Dec-10 15:33N 34°15' E 135°07'0 0.0
2014-Dec-10 14:33N 34°15' E 135°07'0 0.0
2014-Dec-10 13:27N 34°15' E 135°07'0 0.0
2014-Dec-10 12:33N 34°15' E 135°07'0 0.1
2014-Dec-10 11:33N 34°15' E 135°07'0 0.0
2014-Dec-10 10:33N 34°15' E 135°07'0 0.0
2014-Dec-10 09:30N 34°15' E 135°07'0 0.0
2014-Dec-10 08:33N 34°15' E 135°07'0 0.0
2014-Dec-10 07:33N 34°15' E 135°07'0 0.0
2014-Dec-10 06:24N 34°15' E 135°07'0 0.0
2014-Dec-10 05:30N 34°15' E 135°07'0 0.0
2014-Dec-10 04:30N 34°15' E 135°07'0 0.0
2014-Dec-10 03:33N 34°15' E 135°07'0 0.0
2014-Dec-10 02:33N 34°15' E 135°07'0 0.0
2014-Dec-10 01:33N 34°15' E 135°07'0 0.0
2014-Dec-10 00:33N 34°15' E 135°07'1 1.2
2014-Dec-09 23:33N 34°14' E 135°06'1110.7
2014-Dec-09 22:32N 34°25' E 135°04'1211.7
2014-Dec-09 21:32N 34°37' E 135°01'  
Track history (hours):
 
Tides and Currents Weather Stations Pressure Air Temp Water Temp Dewpoint Dewpoint Depression Visibility Wind Speed Wind Dir Waves Ship Positions

Sansumifuku

Last reported at 2014-Dec-18 19:22 UTC. Time now 2014-Dec-22 04:57 UTC.
Position N 34°36' E 134°53'.

Length 75 m; draft 4.3 m.

Type: Cargo ship. MMSI: 431000426.

Date/timePositionNaut miles runAvg speedWind from/ knotsBaromVisibWave heightAir tempDewpointWater temp
2014-Dec-18 19:22N 34°36' E 134°53'1012.6
2014-Dec-18 18:33N 34°35' E 135°05'1212.4
2014-Dec-18 17:33N 34°33' E 135°20'  
2014-Dec-15 07:32N 34°31' E 135°24'0 0.0
2014-Dec-15 03:13N 34°31' E 135°24'5 3.1
2014-Dec-15 01:32N 34°36' E 135°22'6 3.1
2014-Dec-14 23:33N 34°40' E 135°27'2 2.3
2014-Dec-14 22:32N 34°39' E 135°25'2 2.5
2014-Dec-14 21:33N 34°37' E 135°22'0 0.0
2014-Dec-14 20:27N 34°37' E 135°22'0 0.0
2014-Dec-14 19:33N 34°37' E 135°22'0 0.0
2014-Dec-14 18:33N 34°37' E 135°22'0 0.0
2014-Dec-14 17:33N 34°37' E 135°22'0 0.0
2014-Dec-14 16:33N 34°37' E 135°22'0 0.0
2014-Dec-14 15:21N 34°37' E 135°22'0 0.0
2014-Dec-14 14:33N 34°37' E 135°22'0 0.0
2014-Dec-14 13:15N 34°37' E 135°22'0 0.0
2014-Dec-14 12:33N 34°37' E 135°22'0 0.0
2014-Dec-14 11:27N 34°37' E 135°22'0 0.0
2014-Dec-14 10:15N 34°37' E 135°22'0 0.0
2014-Dec-14 09:27N 34°37' E 135°22'0 0.0
2014-Dec-14 08:27N 34°37' E 135°22'0 0.0
2014-Dec-14 07:33N 34°37' E 135°22'0 0.0
2014-Dec-14 06:33N 34°37' E 135°22'0 0.0
2014-Dec-14 05:33N 34°37' E 135°22'0 0.0
2014-Dec-14 04:27N 34°37' E 135°22'0 0.0
2014-Dec-14 03:27N 34°37' E 135°22'0 0.0
2014-Dec-14 02:33N 34°37' E 135°22'0 0.0
2014-Dec-14 01:33N 34°37' E 135°22'0 0.0
2014-Dec-14 00:33N 34°37' E 135°22'0 0.0
2014-Dec-13 23:09N 34°37' E 135°22'0 0.0
2014-Dec-13 22:15N 34°37' E 135°22'0 0.0
2014-Dec-13 21:33N 34°37' E 135°22'0 0.0
2014-Dec-13 20:33N 34°37' E 135°22'0 0.0
2014-Dec-13 19:33N 34°37' E 135°22'0 0.0
2014-Dec-13 18:33N 34°37' E 135°22'0 0.0
2014-Dec-13 17:33N 34°37' E 135°22'0 0.0
2014-Dec-13 16:33N 34°37' E 135°22'0 0.0
2014-Dec-13 15:33N 34°37' E 135°22'0 0.0
2014-Dec-13 14:33N 34°37' E 135°22'0 0.0
2014-Dec-13 13:33N 34°37' E 135°22'0 0.0
2014-Dec-13 12:33N 34°37' E 135°22'0 0.0
2014-Dec-13 11:33N 34°37' E 135°22'0 0.0
2014-Dec-13 10:33N 34°37' E 135°22'0 0.1
2014-Dec-13 09:33N 34°37' E 135°22'1110.9
2014-Dec-13 08:33N 34°35' E 135°09'12 0.3
2014-Dec-11 09:10N 34°36' E 134°55'6 9.7
2014-Dec-11 08:33N 34°37' E 135°02'1111.0
2014-Dec-11 07:32N 34°36' E 135°15'8 6.5
2014-Dec-11 06:16N 34°35' E 135°25'0 0.0
2014-Dec-11 05:28N 34°35' E 135°25'2 1.3
2014-Dec-11 04:13N 34°35' E 135°27'0 0.0
2014-Dec-10 22:17N 34°35' E 135°27'1 1.7
2014-Dec-10 21:33N 34°35' E 135°26'9 9.2
2014-Dec-10 20:33N 34°31' E 135°16'1210.3
2014-Dec-10 19:24N 34°22' E 135°07'7 8.6
2014-Dec-10 18:33N 34°15' E 135°05'2 1.9
2014-Dec-10 17:33N 34°15' E 135°07'0 0.0
2014-Dec-10 16:30N 34°15' E 135°07'0 0.0
2014-Dec-10 15:33N 34°15' E 135°07'0 0.0
2014-Dec-10 14:33N 34°15' E 135°07'0 0.0
2014-Dec-10 13:27N 34°15' E 135°07'0 0.0
2014-Dec-10 12:33N 34°15' E 135°07'0 0.1
2014-Dec-10 11:33N 34°15' E 135°07'0 0.0
2014-Dec-10 10:33N 34°15' E 135°07'0 0.0
2014-Dec-10 09:30N 34°15' E 135°07'0 0.0
2014-Dec-10 08:33N 34°15' E 135°07'0 0.0
2014-Dec-10 07:33N 34°15' E 135°07'0 0.0
2014-Dec-10 06:24N 34°15' E 135°07'0 0.0
2014-Dec-10 05:30N 34°15' E 135°07'0 0.0
2014-Dec-10 04:30N 34°15' E 135°07'0 0.0
2014-Dec-10 03:33N 34°15' E 135°07'0 0.0
2014-Dec-10 02:33N 34°15' E 135°07'0 0.0
2014-Dec-10 01:33N 34°15' E 135°07'0 0.0
2014-Dec-10 00:33N 34°15' E 135°07'1 1.2
2014-Dec-09 23:33N 34°14' E 135°06'1110.7
2014-Dec-09 22:32N 34°25' E 135°04'1211.7
2014-Dec-09 21:32N 34°37' E 135°01'  

Dump ship's entire track history